Time;durP1;ratioP1;P1;durP2;ratioP2;P2;SDS_P1;SDS_P2;PMS_P1;PMS_P2;Temp;Humidity;BMP_temperature;BMP_pressure;BME280_temperature;BME280_humidity;BME280_pressure;Samples;Min_cycle;Max_cycle;Signal;HPM_P1;HPM_P2
2023/03/07 00:01:30;;;;;;;13.02;6.80;;;;;;;2.77;100.00;99949.97;5090985;28;20020;-77
2023/03/07 00:03:56;;;;;;;9.63;6.10;;;;;;;2.76;100.00;99947.44;5092839;28;20423;-77
2023/03/07 00:06:22;;;;;;;17.17;6.50;;;;;;;2.73;100.00;99952.59;5083404;28;20028;-77
2023/03/07 00:08:52;;;;;;;10.52;5.43;;;;;;;2.69;100.00;99956.06;5092594;28;20364;-77
2023/03/07 00:11:17;;;;;;;15.68;5.63;;;;;;;2.65;100.00;99946.63;5092282;28;20123;-76
2023/03/07 00:13:43;;;;;;;9.02;4.72;;;;;;;2.55;100.00;99945.81;5084626;28;20119;-77
2023/03/07 00:16:14;;;;;;;7.68;4.00;;;;;;;2.49;100.00;99935.59;5092660;28;20023;-77
2023/03/07 00:18:40;;;;;;;4.28;3.05;;;;;;;2.42;100.00;99934.75;5092077;28;20028;-78
2023/03/07 00:21:08;;;;;;;5.80;3.20;;;;;;;2.42;100.00;99937.34;5092748;28;20417;-78
2023/03/07 00:23:34;;;;;;;5.00;3.10;;;;;;;2.37;100.00;99939.06;5089866;28;20020;-77
2023/03/07 00:26:21;;;;;;;4.80;2.67;;;;;;;2.37;100.00;99922.78;5092315;28;20062;-78
2023/03/07 00:28:48;;;;;;;4.82;3.13;;;;;;;2.33;100.00;99922.78;5092539;28;20023;-78
2023/03/07 00:31:14;;;;;;;6.00;2.50;;;;;;;2.32;100.00;99920.19;5092655;28;20024;-79
2023/03/07 00:33:40;;;;;;;4.65;2.53;;;;;;;2.29;100.00;99915.94;5091307;28;20528;-78
2023/03/07 00:36:10;;;;;;;3.92;2.38;;;;;;;2.32;100.00;99920.19;5092830;28;20028;-79
2023/03/07 00:38:35;;;;;;;4.43;2.33;;;;;;;2.31;100.00;99915.94;5092445;28;20016;-78
2023/03/07 00:41:04;;;;;;;3.58;2.10;;;;;;;2.30;100.00;99915.09;5079382;28;20025;-79
2023/03/07 00:43:30;;;;;;;4.60;2.03;;;;;;;2.30;100.00;99917.66;5070847;28;20032;-78
2023/03/07 00:45:56;;;;;;;3.42;1.65;;;;;;;2.29;100.00;99909.97;5072235;28;20438;-78
2023/03/07 00:48:22;;;;;;;3.88;2.20;;;;;;;2.33;100.00;99916.78;5071382;28;20028;-78
2023/03/07 00:50:48;;;;;;;4.18;2.35;;;;;;;2.34;100.00;99906.47;5072299;28;20031;-78
2023/03/07 00:53:14;;;;;;;3.22;2.03;;;;;;;2.36;100.00;99903.06;5073243;28;20033;-78
2023/03/07 00:55:39;;;;;;;6.50;2.88;;;;;;;2.38;100.00;99914.19;5078159;28;20021;-78
2023/03/07 00:58:05;;;;;;;5.90;2.55;;;;;;;2.39;100.00;99913.31;5075505;28;20021;-78
2023/03/07 01:00:30;;;;;;;5.95;2.65;;;;;;;2.40;100.00;99904.75;5087288;28;20055;-78
2023/03/07 01:02:57;;;;;;;4.53;2.58;;;;;;;2.37;100.00;99903.03;5096706;28;20065;-78
2023/03/07 01:05:22;;;;;;;6.10;3.00;;;;;;;2.41;100.00;99906.47;5096605;28;20103;-78
2023/03/07 01:07:48;;;;;;;5.25;3.05;;;;;;;2.41;100.00;99898.75;5078736;28;20238;-77
2023/03/07 01:10:13;;;;;;;5.53;3.22;;;;;;;2.33;100.00;99880.78;5075640;28;20031;-78
2023/03/07 01:12:39;;;;;;;8.00;3.88;;;;;;;2.38;100.00;99885.88;5086426;28;20025;-77
2023/03/07 01:15:05;;;;;;;7.25;4.00;;;;;;;2.44;100.00;99899.56;5076246;28;20029;-77
2023/03/07 01:17:32;;;;;;;7.72;3.90;;;;;;;2.41;100.00;99886.72;5084307;28;20024;-77
2023/03/07 01:19:57;;;;;;;9.52;4.63;;;;;;;2.46;100.00;99884.16;5081590;28;20020;-77
2023/03/07 01:22:23;;;;;;;8.68;4.43;;;;;;;2.46;100.00;99887.56;5095334;28;20486;-77
2023/03/07 01:24:48;;;;;;;9.38;4.65;;;;;;;2.50;100.00;99881.53;5085329;28;20036;-77
2023/03/07 01:27:13;;;;;;;8.27;5.22;;;;;;;2.52;100.00;99887.53;5096060;28;20026;-77
2023/03/07 01:29:38;;;;;;;9.63;5.60;;;;;;;2.52;100.00;99882.38;5095185;28;20035;-77
2023/03/07 01:32:04;;;;;;;9.38;5.20;;;;;;;2.55;100.00;99872.09;5078178;28;20028;-77
2023/03/07 01:34:29;;;;;;;9.85;6.10;;;;;;;2.57;100.00;99865.19;5075416;28;20120;-77
2023/03/07 01:36:54;;;;;;;8.80;5.53;;;;;;;2.53;100.00;99863.50;5078183;28;20056;-78
2023/03/07 01:39:20;;;;;;;11.23;6.40;;;;;;;2.53;100.00;99860.94;5096078;28;20028;-77
2023/03/07 01:41:45;;;;;;;11.90;6.53;;;;;;;2.56;100.00;99860.91;5081323;28;20038;-77
2023/03/07 01:44:20;;;;;;;12.88;7.43;;;;;;;2.56;100.00;99858.34;5095196;28;20085;-77
2023/03/07 01:46:55;;;;;;;14.93;6.78;;;;;;;2.60;100.00;99863.47;5095109;28;20046;-77
2023/03/07 01:49:35;;;;;;;11.68;7.47;;;;;;;2.61;100.00;99860.03;5081128;28;20032;-78
2023/03/07 01:52:03;;;;;;;13.18;7.53;;;;;;;2.62;100.00;99859.19;5094823;28;20024;-77
2023/03/07 01:54:31;;;;;;;13.05;7.13;;;;;;;2.63;100.00;99868.59;5094998;28;20544;-77
2023/03/07 01:56:57;;;;;;;17.10;8.52;;;;;;;2.61;100.00;99860.88;5094464;28;20110;-77
2023/03/07 01:59:29;;;;;;;17.13;8.50;;;;;;;2.64;100.00;99855.72;5095412;28;20064;-77
2023/03/07 02:01:56;;;;;;;15.85;7.60;;;;;;;2.65;100.00;99852.28;5095512;28;20032;-76
2023/03/07 02:04:29;;;;;;;18.60;9.07;;;;;;;2.61;100.00;99852.31;5094306;28;20039;-77
2023/03/07 02:06:55;;;;;;;11.25;7.30;;;;;;;2.65;100.00;99846.25;5076666;28;20016;-76
2023/03/07 02:09:22;;;;;;;16.20;8.40;;;;;;;2.58;100.00;99843.75;5095138;28;20111;-77
2023/03/07 02:11:48;;;;;;;15.07;7.97;;;;;;;2.56;100.00;99842.91;5094386;28;20039;-77
2023/03/07 02:14:14;;;;;;;15.65;8.73;;;;;;;2.59;100.00;99847.19;5082435;28;20097;-76
2023/03/07 02:16:40;;;;;;;15.73;8.65;;;;;;;2.58;100.00;99841.19;5095019;28;20522;-76
2023/03/07 02:19:18;;;;;;;14.32;7.72;;;;;;;2.57;100.00;99839.44;5094511;28;20047;-76
2023/03/07 02:21:53;;;;;;;14.77;8.02;;;;;;;2.60;100.00;99836.00;5083583;28;20024;-76
2023/03/07 02:24:31;;;;;;;13.45;7.60;;;;;;;2.60;100.00;99835.16;5073882;28;20087;-76
2023/03/07 02:26:57;;;;;;;13.90;7.32;;;;;;;2.58;100.00;99836.03;5074094;28;20060;-76
2023/03/07 02:29:22;;;;;;;13.90;7.47;;;;;;;2.57;100.00;99829.16;5080518;28;20035;-76
2023/03/07 02:31:47;;;;;;;13.52;6.63;;;;;;;2.56;100.00;99827.47;5073662;28;20032;-76
2023/03/07 02:34:22;;;;;;;14.60;7.28;;;;;;;2.57;100.00;99823.16;5077927;28;20021;-76
2023/03/07 02:36:51;;;;;;;15.00;6.95;;;;;;;2.57;100.00;99831.72;5085876;28;20093;-76
2023/03/07 02:39:20;;;;;;;12.55;6.03;;;;;;;2.57;100.00;99824.03;5087056;28;20025;-76
2023/03/07 02:41:46;;;;;;;11.43;5.82;;;;;;;2.56;100.00;99816.31;5081489;28;20024;-76
2023/03/07 02:44:11;;;;;;;13.55;5.93;;;;;;;2.54;100.00;99813.75;5094651;28;20027;-75
2023/03/07 02:46:37;;;;;;;13.68;5.88;;;;;;;2.53;100.00;99812.03;5093351;28;20034;-76
2023/03/07 02:49:02;;;;;;;11.77;5.78;;;;;;;2.55;100.00;99810.31;5094380;28;20344;-76
2023/03/07 02:51:27;;;;;;;11.52;5.82;;;;;;;2.53;100.00;99814.63;5092343;28;20059;-76
2023/03/07 02:53:53;;;;;;;11.43;6.30;;;;;;;2.49;100.00;99810.38;5093378;28;20051;-76
2023/03/07 02:56:18;;;;;;;12.40;6.28;;;;;;;2.48;100.00;99806.06;5089053;28;20028;-75
2023/03/07 02:58:43;;;;;;;12.02;6.30;;;;;;;2.51;100.00;99818.91;5093971;28;20035;-76
2023/03/07 03:01:09;;;;;;;10.50;5.85;;;;;;;2.49;100.00;99814.66;5093346;28;20111;-75
2023/03/07 03:03:34;;;;;;;14.25;6.47;;;;;;;2.48;100.00;99812.94;5093553;28;20031;-75
2023/03/07 03:05:59;;;;;;;12.90;6.43;;;;;;;2.45;100.00;99808.69;5094312;28;20035;-75
2023/03/07 03:08:25;;;;;;;12.05;6.47;;;;;;;2.43;100.00;99802.69;5093529;28;20052;-74
2023/03/07 03:10:54;;;;;;;13.48;6.78;;;;;;;2.47;100.00;99812.09;5085315;28;20021;-74
2023/03/07 03:13:20;;;;;;;11.32;6.30;;;;;;;2.48;100.00;99810.38;5080800;28;20020;-75
2023/03/07 03:15:45;;;;;;;13.15;6.93;;;;;;;2.44;100.00;99806.97;5092863;28;20382;-75
2023/03/07 03:18:11;;;;;;;18.48;7.03;;;;;;;2.46;100.00;99809.53;5093497;28;20024;-74
2023/03/07 03:20:41;;;;;;;16.23;6.88;;;;;;;2.44;100.00;99804.38;5093758;28;20016;-75
2023/03/07 03:23:06;;;;;;;18.48;7.10;;;;;;;2.44;100.00;99806.97;5092947;28;20507;-75
2023/03/07 03:25:31;;;;;;;15.48;7.03;;;;;;;2.45;100.00;99803.53;5089987;28;20024;-75
2023/03/07 03:27:57;;;;;;;14.82;6.78;;;;;;;2.37;100.00;99787.28;5088529;28;20111;-75
2023/03/07 03:30:22;;;;;;;16.33;6.85;;;;;;;2.43;100.00;99794.97;5083425;28;20463;-74
2023/03/07 03:32:47;;;;;;;14.43;6.88;;;;;;;2.41;100.00;99799.25;5093250;28;20079;-75
2023/03/07 03:35:13;;;;;;;16.27;7.68;;;;;;;2.42;100.00;99793.28;5092174;28;20028;-75
2023/03/07 03:37:38;;;;;;;15.52;7.03;;;;;;;2.44;100.00;99796.66;5092815;28;20020;-75
2023/03/07 03:40:12;;;;;;;16.35;7.78;;;;;;;2.41;100.00;99795.84;5078267;28;20368;-75
2023/03/07 03:42:39;;;;;;;17.08;7.63;;;;;;;2.45;100.00;99792.38;5086699;28;20119;-75
2023/03/07 03:45:05;;;;;;;17.50;7.70;;;;;;;2.45;100.00;99790.69;5090340;28;20020;-74
2023/03/07 03:47:30;;;;;;;14.80;7.28;;;;;;;2.43;100.00;99794.97;5085449;28;20059;-74
2023/03/07 03:49:55;;;;;;;17.67;8.35;;;;;;;2.43;100.00;99788.97;5091125;28;20490;-74
2023/03/07 03:52:22;;;;;;;16.88;7.68;;;;;;;2.39;100.00;99782.13;5093320;28;20032;-74
2023/03/07 03:54:47;;;;;;;19.65;8.98;;;;;;;2.39;100.00;99772.72;5092684;28;20071;-75
2023/03/07 03:57:16;;;;;;;19.48;8.63;;;;;;;2.41;100.00;99776.09;5091896;28;20044;-75
2023/03/07 03:59:42;;;;;;;19.00;8.65;;;;;;;2.39;100.00;99775.28;5092624;28;20033;-75
2023/03/07 04:02:07;;;;;;;19.10;8.65;;;;;;;2.40;100.00;99768.41;5092999;28;20390;-75
2023/03/07 04:04:32;;;;;;;14.15;7.72;;;;;;;2.40;100.00;99764.13;5083694;28;20115;-75
2023/03/07 04:06:58;;;;;;;20.27;8.48;;;;;;;2.41;100.00;99754.69;5091855;28;20035;-75
2023/03/07 04:09:23;;;;;;;18.55;8.57;;;;;;;2.40;100.00;99761.56;5093031;28;20024;-75
2023/03/07 04:11:48;;;;;;;20.58;8.45;;;;;;;2.40;100.00;99758.97;5091803;28;20035;-75
2023/03/07 04:14:13;;;;;;;14.90;7.60;;;;;;;2.40;100.00;99753.84;5092968;28;20493;-75
2023/03/07 04:16:39;;;;;;;17.60;7.78;;;;;;;2.37;100.00;99743.56;5092318;28;20482;-75
2023/03/07 04:19:04;;;;;;;14.90;7.57;;;;;;;2.35;100.00;99737.56;5092319;28;20145;-76
2023/03/07 04:21:29;;;;;;;15.27;6.57;;;;;;;2.36;100.00;99741.03;5084901;28;20471;-75
2023/03/07 04:23:57;;;;;;;16.10;7.20;;;;;;;2.34;100.00;99735.88;5090924;28;20055;-76
2023/03/07 04:26:22;;;;;;;13.68;6.97;;;;;;;2.33;100.00;99737.59;5079927;28;20394;-76
2023/03/07 04:28:48;;;;;;;12.90;7.07;;;;;;;2.32;100.00;99737.59;5074386;28;20107;-75
2023/03/07 04:31:25;;;;;;;14.93;7.40;;;;;;;2.33;100.00;99731.59;5083412;28;20022;-76
2023/03/07 04:33:52;;;;;;;15.98;7.13;;;;;;;2.33;100.00;99735.03;5088715;28;20028;-76
2023/03/07 04:36:18;;;;;;;13.73;6.97;;;;;;;2.34;100.00;99734.16;5092678;28;20066;-75
2023/03/07 04:38:45;;;;;;;13.73;6.57;;;;;;;2.33;100.00;99729.03;5080006;28;20037;-75
2023/03/07 04:41:18;;;;;;;14.77;6.80;;;;;;;2.33;100.00;99726.47;5069312;28;20045;-75
2023/03/07 04:43:43;;;;;;;16.83;7.82;;;;;;;2.21;100.00;99711.13;5073226;28;20121;-75
2023/03/07 04:46:11;;;;;;;15.20;7.18;;;;;;;2.30;100.00;99714.47;5086532;28;20103;-75
2023/03/07 04:48:36;;;;;;;17.08;7.20;;;;;;;2.33;100.00;99719.59;5082462;28;20476;-75
2023/03/07 04:51:02;;;;;;;18.05;7.88;;;;;;;2.26;100.00;99714.50;5085980;28;20028;-75
2023/03/07 04:53:28;;;;;;;17.15;7.65;;;;;;;2.32;100.00;99711.88;5090262;28;20106;-75
2023/03/07 04:56:05;;;;;;;20.55;8.02;;;;;;;2.33;100.00;99711.03;5072686;28;20032;-75
2023/03/07 04:58:31;;;;;;;14.27;7.25;;;;;;;2.33;100.00;99703.31;5090965;28;20032;-75
2023/03/07 05:00:57;;;;;;;20.42;8.48;;;;;;;2.31;100.00;99712.75;5091466;28;20484;-75
2023/03/07 05:03:23;;;;;;;18.75;7.50;;;;;;;2.29;100.00;99709.34;5092385;28;20034;-76
2023/03/07 05:05:49;;;;;;;18.00;8.88;;;;;;;2.31;100.00;99716.16;5089740;28;20027;-76
2023/03/07 05:08:18;;;;;;;17.73;8.25;;;;;;;2.28;100.00;99703.31;5086540;28;20020;-75
2023/03/07 05:10:43;;;;;;;18.55;7.40;;;;;;;2.30;100.00;99711.91;5092057;28;20024;-75
2023/03/07 05:13:09;;;;;;;17.90;8.23;;;;;;;2.31;100.00;99708.44;5079054;28;20051;-75
2023/03/07 05:15:35;;;;;;;16.25;7.38;;;;;;;2.29;100.00;99705.06;5090826;28;20481;-75
2023/03/07 05:18:00;;;;;;;16.23;8.02;;;;;;;2.33;100.00;99704.16;5092304;28;20028;-75
2023/03/07 05:20:26;;;;;;;18.42;7.95;;;;;;;2.34;100.00;99705.00;5092195;28;20081;-75
2023/03/07 05:22:51;;;;;;;17.20;8.15;;;;;;;2.31;100.00;99694.75;5091276;28;20136;-75
2023/03/07 05:25:17;;;;;;;15.93;7.95;;;;;;;2.31;100.00;99693.00;5091705;28;20056;-75
2023/03/07 05:27:42;;;;;;;22.17;8.13;;;;;;;2.29;100.00;99681.06;5091018;28;20032;-75
2023/03/07 05:30:09;;;;;;;21.88;8.25;;;;;;;2.30;100.00;99680.19;5078967;28;20029;-75
2023/03/07 05:32:34;;;;;;;22.02;8.35;;;;;;;2.30;100.00;99669.91;5091444;28;20036;-75
2023/03/07 05:35:00;;;;;;;19.80;7.80;;;;;;;2.32;100.00;99670.72;5091369;28;20020;-75
2023/03/07 05:37:25;;;;;;;17.65;7.68;;;;;;;2.33;100.00;99672.44;5092141;28;20039;-75
2023/03/07 05:39:50;;;;;;;16.85;8.15;;;;;;;2.32;100.00;99669.03;5087730;28;20111;-75
2023/03/07 05:42:16;;;;;;;17.65;8.63;;;;;;;2.36;100.00;99674.16;5084520;28;20111;-75
2023/03/07 05:44:41;;;;;;;20.88;8.48;;;;;;;2.32;100.00;99671.59;5092586;28;20028;-76
2023/03/07 05:47:07;;;;;;;18.55;7.70;;;;;;;2.32;100.00;99674.16;5092359;28;20111;-76
2023/03/07 05:49:32;;;;;;;19.27;8.15;;;;;;;2.34;100.00;99675.00;5094582;28;20020;-75
2023/03/07 05:51:57;;;;;;;19.27;9.80;;;;;;;2.32;100.00;99675.88;5095762;28;20016;-75
2023/03/07 05:54:23;;;;;;;22.30;9.43;;;;;;;2.33;100.00;99677.59;5095667;28;20024;-75
2023/03/07 05:56:48;;;;;;;23.17;9.45;;;;;;;2.33;100.00;99664.72;5094253;28;20463;-75
2023/03/07 05:59:14;;;;;;;23.98;9.93;;;;;;;2.32;100.00;99668.16;5095540;28;20177;-75
2023/03/07 06:01:40;;;;;;;23.45;10.77;;;;;;;2.30;100.00;99664.75;5095178;28;20018;-76
2023/03/07 06:04:06;;;;;;;20.60;9.68;;;;;;;2.30;100.00;99663.03;5082360;28;20116;-76
2023/03/07 06:06:31;;;;;;;20.60;10.02;;;;;;;2.27;100.00;99663.06;5077770;28;20459;-76
2023/03/07 06:08:57;;;;;;;21.88;10.48;;;;;;;2.28;100.00;99671.63;5085327;28;20012;-76
2023/03/07 06:11:22;;;;;;;18.17;9.35;;;;;;;2.25;100.00;99666.50;5071813;28;20031;-76
2023/03/07 06:13:48;;;;;;;16.67;8.20;;;;;;;2.22;100.00;99676.81;5081888;28;20531;-75
2023/03/07 06:16:13;;;;;;;22.83;9.07;;;;;;;2.21;100.00;99675.97;5092279;28;20048;-75
2023/03/07 06:18:38;;;;;;;18.83;8.23;;;;;;;2.22;100.00;99679.38;5090914;28;20024;-75
2023/03/07 06:21:06;;;;;;;18.90;8.32;;;;;;;2.19;100.00;99661.41;5091127;28;20367;-75
2023/03/07 06:23:33;;;;;;;23.67;8.60;;;;;;;2.20;100.00;99663.97;5094731;28;20379;-75
2023/03/07 06:26:03;;;;;;;15.43;8.20;;;;;;;2.20;100.00;99669.13;5094523;28;20667;-74
2023/03/07 06:28:29;;;;;;;15.77;8.10;;;;;;;2.17;100.00;99658.84;5091180;28;20021;-75
2023/03/07 06:30:55;;;;;;;15.60;7.57;;;;;;;2.16;100.00;99675.16;5094068;28;20054;-75
2023/03/07 06:33:20;;;;;;;18.75;7.30;;;;;;;2.16;100.00;99676.84;5095064;28;20050;-75
2023/03/07 06:35:46;;;;;;;15.20;6.82;;;;;;;2.10;100.00;99688.06;5094599;28;20488;-75
2023/03/07 06:38:13;;;;;;;11.63;5.82;;;;;;;2.05;100.00;99689.81;5090433;28;20115;-75
2023/03/07 06:40:39;;;;;;;10.02;5.50;;;;;;;1.95;100.00;99683.88;5082388;28;20086;-75
2023/03/07 06:43:04;;;;;;;11.75;4.60;;;;;;;1.84;100.00;99680.53;5092435;28;20367;-74
2023/03/07 06:45:30;;;;;;;10.43;4.93;;;;;;;1.69;100.00;99675.47;5093726;28;20027;-74
2023/03/07 06:47:55;;;;;;;12.05;5.38;;;;;;;1.66;100.00;99678.91;5092517;28;20039;-74
2023/03/07 06:50:23;;;;;;;11.07;5.47;;;;;;;1.59;100.00;99675.53;5082158;28;20032;-75
2023/03/07 06:52:50;;;;;;;12.35;6.28;;;;;;;1.56;100.00;99675.53;5082621;28;20089;-74
2023/03/07 06:55:19;;;;;;;12.88;6.25;;;;;;;1.51;100.00;99689.28;5080629;28;20520;-75
2023/03/07 06:57:44;;;;;;;13.20;6.07;;;;;;;1.48;100.00;99692.72;5094301;28;20109;-75
2023/03/07 07:00:11;;;;;;;12.15;6.43;;;;;;;1.42;100.00;99691.91;5092554;28;20077;-75
2023/03/07 07:02:36;;;;;;;12.10;5.53;;;;;;;1.34;100.00;99694.47;5084952;28;20032;-75
2023/03/07 07:05:02;;;;;;;9.77;5.63;;;;;;;1.18;100.00;99691.16;5092989;28;20165;-74
2023/03/07 07:07:28;;;;;;;10.55;5.45;;;;;;;1.12;100.00;99692.00;5093195;28;20089;-75
2023/03/07 07:09:53;;;;;;;12.68;5.40;;;;;;;1.07;100.00;99692.88;5094240;28;20029;-74
2023/03/07 07:12:18;;;;;;;9.13;4.65;;;;;;;1.03;100.00;99697.16;5086118;28;20478;-74
2023/03/07 07:14:46;;;;;;;10.75;4.97;;;;;;;0.90;100.00;99692.94;5093148;28;20028;-75
2023/03/07 07:17:15;;;;;;;11.43;5.57;;;;;;;0.85;100.00;99692.97;5093779;28;20455;-74
2023/03/07 07:19:40;;;;;;;12.68;5.68;;;;;;;0.85;100.00;99692.97;5093792;28;20383;-75
2023/03/07 07:22:10;;;;;;;16.40;6.40;;;;;;;0.79;100.00;99694.69;5092975;28;20020;-74
2023/03/07 07:24:39;;;;;;;15.85;6.47;;;;;;;0.78;100.00;99688.69;5093795;28;20069;-75
2023/03/07 07:27:05;;;;;;;14.48;7.07;;;;;;;0.76;100.00;99682.72;5079091;28;20052;-75
2023/03/07 07:29:30;;;;;;;17.52;7.28;;;;;;;0.73;100.00;99689.56;5082902;28;20028;-75
2023/03/07 07:31:56;;;;;;;13.43;6.93;;;;;;;0.74;100.00;99694.69;5069600;28;20036;-75
2023/03/07 07:34:21;;;;;;;14.93;7.20;;;;;;;0.63;100.00;99692.13;5073560;28;20032;-76
2023/03/07 07:36:46;;;;;;;12.35;6.93;;;;;;;0.61;100.00;99713.50;5082641;28;20119;-76
2023/03/07 07:39:14;;;;;;;16.58;7.53;;;;;;;0.56;100.00;99718.66;5091144;28;20024;-76
2023/03/07 07:41:39;;;;;;;20.42;7.68;;;;;;;0.45;100.00;99723.78;5078752;28;20106;-75
2023/03/07 07:44:05;;;;;;;13.27;7.35;;;;;;;0.27;100.00;99728.91;5089350;28;20035;-74
2023/03/07 07:46:30;;;;;;;13.20;6.78;;;;;;;0.14;100.00;99734.88;5070937;28;20133;-75
2023/03/07 07:48:56;;;;;;;14.30;7.32;;;;;;;-0.07;100.00;99741.66;5082660;28;20375;-74
2023/03/07 07:51:21;;;;;;;15.27;7.47;;;;;;;-0.13;100.00;99745.91;5087759;28;20044;-74
2023/03/07 07:53:47;;;;;;;17.52;8.18;;;;;;;-0.27;100.00;99754.44;5067528;28;20020;-74
2023/03/07 07:56:12;;;;;;;17.95;7.72;;;;;;;-0.33;100.00;99753.56;5072912;28;20442;-75
2023/03/07 07:58:38;;;;;;;18.40;7.55;;;;;;;-0.30;100.00;99745.88;5081110;28;20028;-75
2023/03/07 08:01:14;;;;;;;29.60;8.35;;;;;;;-0.13;100.00;99735.69;5085710;28;20044;-74
2023/03/07 08:03:40;;;;;;;19.95;8.63;;;;;;;0.01;100.00;99723.75;5079340;28;20036;-74
2023/03/07 08:06:05;;;;;;;25.02;8.80;;;;;;;0.25;100.00;99732.31;5093251;28;20027;-74
2023/03/07 08:08:31;;;;;;;27.77;9.52;;;;;;;0.37;100.00;99746.00;5076437;28;20043;-74
2023/03/07 08:10:56;;;;;;;27.85;9.63;;;;;;;0.48;100.00;99746.00;5075310;28;20036;-74
2023/03/07 08:13:22;;;;;;;23.77;8.63;;;;;;;0.52;100.00;99741.72;5087550;28;20027;-74
2023/03/07 08:15:47;;;;;;;30.10;9.80;;;;;;;0.54;100.00;99743.44;5092770;28;20035;-74
2023/03/07 08:18:12;;;;;;;25.20;9.75;;;;;;;0.54;100.00;99751.13;5078039;28;20119;-74
2023/03/07 08:20:40;;;;;;;21.40;8.43;;;;;;;0.51;100.00;99755.41;5089285;28;20474;-74
2023/03/07 08:23:05;;;;;;;19.52;9.18;;;;;;;0.50;100.00;99764.81;5084024;28;20028;-74
2023/03/07 08:25:31;;;;;;;21.15;9.40;;;;;;;0.41;100.00;99775.06;5091613;28;20114;-74
2023/03/07 08:27:56;;;;;;;23.42;9.13;;;;;;;0.34;100.00;99773.34;5092930;28;20031;-75
2023/03/07 08:30:28;;;;;;;21.40;9.20;;;;;;;0.36;100.00;99776.75;5092105;28;20043;-74
2023/03/07 08:32:58;;;;;;;26.98;9.55;;;;;;;0.42;100.00;99769.06;5092736;28;20509;-74
2023/03/07 08:35:25;;;;;;;22.25;10.07;;;;;;;0.52;100.00;99767.38;5088969;28;20421;-74
2023/03/07 08:37:55;;;;;;;23.92;10.13;;;;;;;0.46;100.00;99774.22;5075935;28;20027;-74
2023/03/07 08:40:22;;;;;;;30.80;10.30;;;;;;;0.50;100.00;99769.94;5079759;28;20028;-74
2023/03/07 08:42:48;;;;;;;30.23;10.60;;;;;;;0.67;100.00;99775.06;5087924;28;20039;-74
2023/03/07 08:45:14;;;;;;;28.08;11.20;;;;;;;0.69;100.00;99763.97;5089105;28;20383;-74
2023/03/07 08:47:39;;;;;;;30.20;11.18;;;;;;;0.68;100.00;99782.75;5092603;28;20115;-74
2023/03/07 08:50:05;;;;;;;28.60;10.18;;;;;;;0.55;100.00;99752.84;5078692;28;20379;-74
2023/03/07 08:52:30;;;;;;;29.25;10.75;;;;;;;0.70;100.00;99773.34;5071264;28;20029;-74
2023/03/07 08:54:56;;;;;;;31.30;11.32;;;;;;;0.69;100.00;99757.97;5082161;28;20032;-77
2023/03/07 08:57:21;;;;;;;34.28;11.30;;;;;;;0.78;100.00;99765.66;5074750;28;20043;-76
2023/03/07 08:59:46;;;;;;;32.97;13.00;;;;;;;0.80;100.00;99769.06;5070407;28;20063;-76
2023/03/07 09:02:11;;;;;;;32.55;11.88;;;;;;;0.85;100.00;99757.09;5072053;28;20115;-76
2023/03/07 09:04:37;;;;;;;28.50;11.43;;;;;;;0.93;100.00;99760.50;5072060;28;20101;-75
2023/03/07 09:07:02;;;;;;;33.58;11.90;;;;;;;0.97;100.00;99755.38;5070621;28;20417;-75
2023/03/07 09:09:29;;;;;;;34.38;12.35;;;;;;;1.01;100.00;99768.19;5071038;28;20037;-75
2023/03/07 09:11:54;;;;;;;36.15;12.45;;;;;;;1.02;100.00;99767.34;5071099;28;20039;-76
2023/03/07 09:14:19;;;;;;;30.60;12.25;;;;;;;1.03;100.00;99766.47;5071770;28;20036;-76
2023/03/07 09:16:45;;;;;;;32.28;12.93;;;;;;;1.08;100.00;99779.28;5075514;28;20035;-76
2023/03/07 09:19:10;;;;;;;32.55;13.68;;;;;;;0.99;100.00;99759.66;5075491;28;20072;-76
2023/03/07 09:21:35;;;;;;;37.13;13.27;;;;;;;0.95;100.00;99763.09;5074852;28;20117;-76
2023/03/07 09:24:01;;;;;;;28.63;12.57;;;;;;;0.92;100.00;99775.91;5076133;28;20472;-77
2023/03/07 09:26:26;;;;;;;29.13;13.02;;;;;;;0.98;100.00;99777.59;5076060;28;20371;-77
2023/03/07 09:28:51;;;;;;;28.63;12.57;;;;;;;0.88;100.00;99769.94;5074915;28;20118;-79
2023/03/07 09:31:17;;;;;;;23.77;11.20;;;;;;;0.99;100.00;99787.88;5075026;28;20036;-75
2023/03/07 09:33:42;;;;;;;24.85;11.40;;;;;;;0.98;100.00;99791.31;5073369;28;20077;-75
2023/03/07 09:36:10;;;;;;;25.13;12.32;;;;;;;0.98;100.00;99798.13;5065159;28;20043;-77
2023/03/07 09:38:36;;;;;;;24.10;11.82;;;;;;;0.95;100.00;99799.00;5067721;28;20759;-78
2023/03/07 09:41:41;;;;;;;27.20;12.40;;;;;;;0.99;100.00;99784.47;5066675;28;20028;-77
2023/03/07 09:44:22;;;;;;;25.85;11.95;;;;;;;1.05;100.00;99780.16;5073853;28;20095;-77
2023/03/07 09:46:53;;;;;;;22.88;10.82;;;;;;;1.11;100.00;99785.31;5069205;28;20053;-78
2023/03/07 09:49:40;;;;;;;26.08;11.73;;;;;;;1.13;100.00;99786.13;5069930;28;20475;-79
2023/03/07 09:52:12;;;;;;;25.65;10.93;;;;;;;1.20;100.00;99780.97;5078310;28;20036;-79
2023/03/07 09:54:41;;;;;;;23.13;10.20;;;;;;;1.24;100.00;99787.81;5076934;28;20025;-79
2023/03/07 09:57:15;;;;;;;22.48;10.13;;;;;;;1.24;100.00;99785.25;5083347;28;20027;-80
2023/03/07 09:59:47;;;;;;;23.95;10.02;;;;;;;1.14;100.00;99775.03;5079745;28;20549;-78
2023/03/07 10:02:40;;;;;;;22.02;10.63;;;;;;;1.24;100.00;99788.66;5073128;28;20078;-77
2023/03/07 10:05:13;;;;;;;21.63;11.07;;;;;;;1.29;100.00;99788.66;5076776;28;20032;-78
2023/03/07 10:07:38;;;;;;;29.35;12.65;;;;;;;1.30;100.00;99782.66;5077176;28;20020;-78
2023/03/07 10:10:13;;;;;;;25.90;12.48;;;;;;;1.36;100.00;99782.66;5075179;28;20120;-78
2023/03/07 10:12:57;;;;;;;23.15;11.50;;;;;;;1.29;100.00;99778.41;5087012;28;20095;-78
2023/03/07 10:15:23;;;;;;;;;;;;;;;1.46;100.00;99791.19;5071443;28;20116;-78
2023/03/07 10:18:03;;;;;;;19.60;9.37;;;;;;;1.47;100.00;99793.75;5082061;28;20014;-79
2023/03/07 10:20:46;;;;;;;19.52;9.88;;;;;;;1.40;100.00;99789.47;5073096;28;20322;-78
2023/03/07 10:23:51;;;;;;;18.13;8.52;;;;;;;1.43;100.00;99789.47;5074999;28;20359;-78
2023/03/07 10:26:28;;;;;;;;;;;;;;;1.51;100.00;99785.19;5029744;28;20047;-78
2023/03/07 10:28:58;;;;;;;18.52;8.10;;;;;;;1.52;100.00;99792.03;5074208;28;20393;-79
2023/03/07 10:31:38;;;;;;;15.43;8.00;;;;;;;1.57;100.00;99789.41;5062544;28;20033;-78
2023/03/07 10:34:37;;;;;;;18.63;8.88;;;;;;;1.56;100.00;99785.16;5077820;28;20069;-78
2023/03/07 10:37:12;;;;;;;19.95;8.60;;;;;;;1.57;100.00;99780.03;5070858;28;20034;-78
2023/03/07 10:39:53;;;;;;;17.15;8.32;;;;;;;1.53;100.00;99782.59;5080855;28;20032;-79
2023/03/07 10:42:21;;;;;;;14.70;7.82;;;;;;;1.43;100.00;99798.91;5080504;28;20021;-75
2023/03/07 10:44:47;;;;;;;15.02;7.45;;;;;;;1.38;100.00;99775.81;5081508;28;20059;-78
2023/03/07 10:47:19;;;;;;;15.07;7.60;;;;;;;1.47;100.00;99791.19;5067516;28;20020;-78
2023/03/07 10:49:46;;;;;;;14.15;6.90;;;;;;;1.51;100.00;99785.19;5064502;28;20039;-75
2023/03/07 10:52:31;;;;;;;12.75;6.15;;;;;;;1.58;100.00;99779.16;5072550;28;20115;-77
2023/03/07 10:55:35;;;;;;;14.48;6.45;;;;;;;1.62;100.00;99787.69;5076698;28;20114;-76
2023/03/07 10:58:23;;;;;;;14.52;6.35;;;;;;;1.69;100.00;99789.38;5077993;28;20074;-76
2023/03/07 11:01:05;;;;;;;12.68;6.15;;;;;;;1.66;100.00;99791.09;5075144;28;20036;-77
2023/03/07 11:03:38;;;;;;;11.23;5.97;;;;;;;1.65;100.00;99790.25;5071052;28;20491;-79
2023/03/07 11:06:04;;;;;;;11.60;5.50;;;;;;;1.70;100.00;99790.22;5077210;28;20078;-77
2023/03/07 11:08:35;;;;;;;9.52;5.45;;;;;;;1.67;100.00;99787.66;5079780;28;20024;-76
2023/03/07 11:11:02;;;;;;;13.05;6.22;;;;;;;1.82;100.00;99792.75;5089164;28;20031;-77
2023/03/07 11:13:28;;;;;;;10.18;5.78;;;;;;;1.87;100.00;99789.31;5070945;28;20037;-77
2023/03/07 11:16:28;;;;;;;11.48;6.05;;;;;;;2.03;100.00;99774.66;5073994;28;20028;-77
2023/03/07 11:18:54;;;;;;;12.50;5.97;;;;;;;2.22;100.00;99779.66;5050795;28;20040;-77
2023/03/07 11:21:26;;;;;;;11.05;6.32;;;;;;;2.30;100.00;99788.22;5068025;28;20044;-77
2023/03/07 11:24:00;;;;;;;10.23;5.47;;;;;;;2.32;100.00;99773.59;5071584;28;20040;-77
2023/03/07 11:26:30;;;;;;;10.88;5.95;;;;;;;2.50;100.00;99788.91;5073254;28;20024;-77
2023/03/07 11:29:12;;;;;;;11.80;5.85;;;;;;;2.67;100.00;99785.34;5078075;28;20108;-77